sensor_id;sensor_type;location;lat;lon;timestamp;P1;durP1;ratioP1;P2;durP2;ratioP2
69026;SDS011;56080;47.594;19.116;2023-06-22T00:00:22;14.10;;;7.10;;
69026;SDS011;56080;47.594;19.116;2023-06-22T00:10:20;14.50;;;7.60;;
69026;SDS011;56080;47.594;19.116;2023-06-22T00:20:22;14.40;;;6.40;;
69026;SDS011;56080;47.594;19.116;2023-06-22T00:30:25;15.80;;;6.80;;
69026;SDS011;56080;47.594;19.116;2023-06-22T00:40:28;13.00;;;6.60;;
69026;SDS011;56080;47.594;19.116;2023-06-22T00:50:30;12.00;;;6.20;;
69026;SDS011;56080;47.594;19.116;2023-06-22T01:00:30;10.50;;;5.60;;
69026;SDS011;56080;47.594;19.116;2023-06-22T01:20:34;11.50;;;5.80;;
69026;SDS011;56080;47.594;19.116;2023-06-22T01:30:35;9.20;;;5.40;;
69026;SDS011;56080;47.594;19.116;2023-06-22T01:40:38;11.80;;;5.60;;
69026;SDS011;56080;47.594;19.116;2023-06-22T01:50:38;13.10;;;6.00;;
69026;SDS011;56080;47.594;19.116;2023-06-22T02:00:44;10.20;;;5.00;;
69026;SDS011;56080;47.594;19.116;2023-06-22T02:10:42;11.80;;;5.30;;
69026;SDS011;56080;47.594;19.116;2023-06-22T02:20:46;10.20;;;5.40;;
69026;SDS011;56080;47.594;19.116;2023-06-22T02:30:45;9.80;;;5.00;;
69026;SDS011;56080;47.594;19.116;2023-06-22T02:40:46;9.70;;;5.20;;
69026;SDS011;56080;47.594;19.116;2023-06-22T02:50:48;10.00;;;5.60;;
69026;SDS011;56080;47.594;19.116;2023-06-22T03:00:50;12.60;;;5.80;;
69026;SDS011;56080;47.594;19.116;2023-06-22T03:10:52;11.20;;;6.00;;
69026;SDS011;56080;47.594;19.116;2023-06-22T03:20:53;10.00;;;5.40;;
69026;SDS011;56080;47.594;19.116;2023-06-22T03:30:57;12.80;;;5.20;;
69026;SDS011;56080;47.594;19.116;2023-06-22T03:40:58;10.10;;;5.10;;
69026;SDS011;56080;47.594;19.116;2023-06-22T03:50:59;10.60;;;5.20;;
69026;SDS011;56080;47.594;19.116;2023-06-22T04:01:02;11.30;;;5.50;;
69026;SDS011;56080;47.594;19.116;2023-06-22T04:11:03;12.90;;;5.40;;
69026;SDS011;56080;47.594;19.116;2023-06-22T04:21:04;11.30;;;5.60;;
69026;SDS011;56080;47.594;19.116;2023-06-22T04:31:08;10.80;;;5.60;;
69026;SDS011;56080;47.594;19.116;2023-06-22T04:41:08;12.90;;;6.50;;
69026;SDS011;56080;47.594;19.116;2023-06-22T04:51:14;11.30;;;5.40;;
69026;SDS011;56080;47.594;19.116;2023-06-22T05:01:13;10.90;;;5.30;;
69026;SDS011;56080;47.594;19.116;2023-06-22T05:11:17;11.60;;;5.80;;
69026;SDS011;56080;47.594;19.116;2023-06-22T05:21:17;11.80;;;6.40;;
69026;SDS011;56080;47.594;19.116;2023-06-22T05:31:20;14.40;;;7.20;;
69026;SDS011;56080;47.594;19.116;2023-06-22T05:41:23;12.00;;;6.10;;
69026;SDS011;56080;47.594;19.116;2023-06-22T05:51:25;10.40;;;5.10;;
69026;SDS011;56080;47.594;19.116;2023-06-22T06:01:28;10.60;;;5.80;;
69026;SDS011;56080;47.594;19.116;2023-06-22T06:11:31;10.80;;;7.00;;
69026;SDS011;56080;47.594;19.116;2023-06-22T06:21:34;11.00;;;5.50;;
69026;SDS011;56080;47.594;19.116;2023-06-22T06:31:38;11.50;;;5.10;;
69026;SDS011;56080;47.594;19.116;2023-06-22T06:41:40;12.40;;;6.40;;
69026;SDS011;56080;47.594;19.116;2023-06-22T06:51:43;11.20;;;5.30;;
69026;SDS011;56080;47.594;19.116;2023-06-22T07:01:46;11.50;;;5.10;;
69026;SDS011;56080;47.594;19.116;2023-06-22T07:11:49;12.70;;;5.40;;
69026;SDS011;56080;47.594;19.116;2023-06-22T07:21:53;11.70;;;6.00;;
69026;SDS011;56080;47.594;19.116;2023-06-22T07:31:56;13.20;;;5.50;;
69026;SDS011;56080;47.594;19.116;2023-06-22T07:41:59;10.60;;;5.00;;
69026;SDS011;56080;47.594;19.116;2023-06-22T07:52:02;13.30;;;5.10;;
69026;SDS011;56080;47.594;19.116;2023-06-22T08:02:05;11.00;;;5.80;;
69026;SDS011;56080;47.594;19.116;2023-06-22T08:12:09;13.30;;;5.40;;
69026;SDS011;56080;47.594;19.116;2023-06-22T08:22:11;12.30;;;6.50;;
69026;SDS011;56080;47.594;19.116;2023-06-22T08:32:15;11.60;;;5.10;;
69026;SDS011;56080;47.594;19.116;2023-06-22T08:42:17;12.60;;;5.30;;
69026;SDS011;56080;47.594;19.116;2023-06-22T08:52:20;11.50;;;5.10;;
69026;SDS011;56080;47.594;19.116;2023-06-22T09:02:24;13.10;;;6.40;;
69026;SDS011;56080;47.594;19.116;2023-06-22T09:12:27;11.60;;;4.80;;
69026;SDS011;56080;47.594;19.116;2023-06-22T09:22:29;11.50;;;6.30;;
69026;SDS011;56080;47.594;19.116;2023-06-22T09:32:32;12.30;;;6.50;;
69026;SDS011;56080;47.594;19.116;2023-06-22T09:42:35;12.10;;;6.70;;
69026;SDS011;56080;47.594;19.116;2023-06-22T09:52:48;12.50;;;6.80;;
69026;SDS011;56080;47.594;19.116;2023-06-22T10:02:41;10.50;;;7.00;;
69026;SDS011;56080;47.594;19.116;2023-06-22T10:12:46;11.90;;;8.20;;
69026;SDS011;56080;47.594;19.116;2023-06-22T10:22:48;12.20;;;8.70;;
69026;SDS011;56080;47.594;19.116;2023-06-22T10:32:49;13.50;;;8.90;;
69026;SDS011;56080;47.594;19.116;2023-06-22T10:42:52;10.90;;;8.10;;
69026;SDS011;56080;47.594;19.116;2023-06-22T10:52:55;12.80;;;9.70;;
69026;SDS011;56080;47.594;19.116;2023-06-22T11:02:58;13.20;;;10.20;;
69026;SDS011;56080;47.594;19.116;2023-06-22T11:13:00;13.90;;;10.60;;
69026;SDS011;56080;47.594;19.116;2023-06-22T11:23:03;14.20;;;9.60;;
69026;SDS011;56080;47.594;19.116;2023-06-22T11:33:06;12.70;;;9.70;;
69026;SDS011;56080;47.594;19.116;2023-06-22T11:43:09;12.80;;;9.50;;
69026;SDS011;56080;47.594;19.116;2023-06-22T11:53:11;15.30;;;10.70;;
69026;SDS011;56080;47.594;19.116;2023-06-22T12:03:13;14.30;;;10.40;;
69026;SDS011;56080;47.594;19.116;2023-06-22T12:13:16;14.00;;;10.70;;
69026;SDS011;56080;47.594;19.116;2023-06-22T12:23:18;15.20;;;10.20;;
69026;SDS011;56080;47.594;19.116;2023-06-22T12:33:21;14.80;;;10.40;;
69026;SDS011;56080;47.594;19.116;2023-06-22T12:43:24;13.80;;;11.40;;
69026;SDS011;56080;47.594;19.116;2023-06-22T12:53:26;11.00;;;9.30;;
69026;SDS011;56080;47.594;19.116;2023-06-22T13:03:29;11.90;;;9.50;;
69026;SDS011;56080;47.594;19.116;2023-06-22T13:13:31;13.30;;;9.90;;
69026;SDS011;56080;47.594;19.116;2023-06-22T13:23:34;13.20;;;11.10;;
69026;SDS011;56080;47.594;19.116;2023-06-22T13:33:37;11.30;;;9.90;;
69026;SDS011;56080;47.594;19.116;2023-06-22T13:43:39;11.10;;;9.50;;
69026;SDS011;56080;47.594;19.116;2023-06-22T13:53:41;13.30;;;9.90;;
69026;SDS011;56080;47.594;19.116;2023-06-22T14:03:44;12.20;;;10.00;;
69026;SDS011;56080;47.594;19.116;2023-06-22T14:13:47;12.60;;;10.80;;
69026;SDS011;56080;47.594;19.116;2023-06-22T14:23:49;15.50;;;11.10;;
69026;SDS011;56080;47.594;19.116;2023-06-22T14:33:55;15.80;;;10.30;;
69026;SDS011;56080;47.594;19.116;2023-06-22T14:43:56;14.20;;;11.00;;
69026;SDS011;56080;47.594;19.116;2023-06-22T14:53:57;13.50;;;10.50;;
69026;SDS011;56080;47.594;19.116;2023-06-22T15:04:00;14.30;;;10.90;;
69026;SDS011;56080;47.594;19.116;2023-06-22T15:14:03;13.10;;;8.50;;
69026;SDS011;56080;47.594;19.116;2023-06-22T15:24:05;12.60;;;8.40;;
69026;SDS011;56080;47.594;19.116;2023-06-22T15:34:08;9.50;;;6.90;;
69026;SDS011;56080;47.594;19.116;2023-06-22T15:44:11;12.90;;;8.10;;
69026;SDS011;56080;47.594;19.116;2023-06-22T15:54:14;12.10;;;8.70;;
69026;SDS011;56080;47.594;19.116;2023-06-22T16:04:16;12.20;;;7.90;;
69026;SDS011;56080;47.594;19.116;2023-06-22T16:14:20;12.50;;;7.10;;
69026;SDS011;56080;47.594;19.116;2023-06-22T16:24:22;12.30;;;6.30;;
69026;SDS011;56080;47.594;19.116;2023-06-22T16:34:26;9.90;;;6.50;;
69026;SDS011;56080;47.594;19.116;2023-06-22T16:44:29;14.20;;;9.30;;
69026;SDS011;56080;47.594;19.116;2023-06-22T16:54:31;11.70;;;7.00;;
69026;SDS011;56080;47.594;19.116;2023-06-22T17:04:34;9.90;;;6.00;;
69026;SDS011;56080;47.594;19.116;2023-06-22T17:14:38;9.80;;;6.60;;
69026;SDS011;56080;47.594;19.116;2023-06-22T17:24:40;9.40;;;6.00;;
69026;SDS011;56080;47.594;19.116;2023-06-22T17:34:43;9.70;;;7.40;;
69026;SDS011;56080;47.594;19.116;2023-06-22T17:44:46;8.60;;;6.70;;
69026;SDS011;56080;47.594;19.116;2023-06-22T17:55:02;10.70;;;6.20;;
69026;SDS011;56080;47.594;19.116;2023-06-22T18:04:50;10.20;;;6.30;;
69026;SDS011;56080;47.594;19.116;2023-06-22T18:14:53;11.50;;;6.80;;
69026;SDS011;56080;47.594;19.116;2023-06-22T18:24:58;10.10;;;6.70;;
69026;SDS011;56080;47.594;19.116;2023-06-22T18:35:02;15.00;;;8.20;;
69026;SDS011;56080;47.594;19.116;2023-06-22T18:45:02;13.10;;;7.40;;
69026;SDS011;56080;47.594;19.116;2023-06-22T18:55:06;11.20;;;6.60;;
69026;SDS011;56080;47.594;19.116;2023-06-22T19:05:17;11.10;;;6.60;;
69026;SDS011;56080;47.594;19.116;2023-06-22T19:15:10;12.20;;;6.80;;
69026;SDS011;56080;47.594;19.116;2023-06-22T19:25:20;15.90;;;12.10;;
69026;SDS011;56080;47.594;19.116;2023-06-22T19:35:17;10.70;;;6.80;;
69026;SDS011;56080;47.594;19.116;2023-06-22T19:45:18;18.40;;;13.50;;
69026;SDS011;56080;47.594;19.116;2023-06-22T19:55:24;15.00;;;11.20;;
69026;SDS011;56080;47.594;19.116;2023-06-22T20:05:23;11.90;;;9.20;;
69026;SDS011;56080;47.594;19.116;2023-06-22T20:15:25;10.20;;;8.30;;
69026;SDS011;56080;47.594;19.116;2023-06-22T20:25:30;11.40;;;8.30;;
69026;SDS011;56080;47.594;19.116;2023-06-22T20:35:31;11.00;;;8.50;;
69026;SDS011;56080;47.594;19.116;2023-06-22T20:45:31;14.00;;;9.20;;
69026;SDS011;56080;47.594;19.116;2023-06-22T20:55:34;15.40;;;10.40;;
69026;SDS011;56080;47.594;19.116;2023-06-22T21:05:38;12.20;;;8.80;;
69026;SDS011;56080;47.594;19.116;2023-06-22T21:15:38;14.10;;;9.30;;
69026;SDS011;56080;47.594;19.116;2023-06-22T21:25:41;14.90;;;10.20;;
69026;SDS011;56080;47.594;19.116;2023-06-22T21:35:43;14.70;;;9.60;;
69026;SDS011;56080;47.594;19.116;2023-06-22T21:45:46;13.80;;;9.30;;
69026;SDS011;56080;47.594;19.116;2023-06-22T21:55:47;13.30;;;8.50;;
69026;SDS011;56080;47.594;19.116;2023-06-22T22:05:49;11.30;;;8.20;;
69026;SDS011;56080;47.594;19.116;2023-06-22T22:15:52;16.30;;;11.20;;
69026;SDS011;56080;47.594;19.116;2023-06-22T22:25:54;14.80;;;10.90;;
69026;SDS011;56080;47.594;19.116;2023-06-22T22:35:57;16.70;;;11.40;;
69026;SDS011;56080;47.594;19.116;2023-06-22T22:45:59;13.90;;;11.80;;
69026;SDS011;56080;47.594;19.116;2023-06-22T22:56:02;12.60;;;11.30;;
69026;SDS011;56080;47.594;19.116;2023-06-22T23:06:04;13.40;;;11.40;;
69026;SDS011;56080;47.594;19.116;2023-06-22T23:16:06;15.30;;;11.90;;
69026;SDS011;56080;47.594;19.116;2023-06-22T23:26:08;14.00;;;12.10;;
69026;SDS011;56080;47.594;19.116;2023-06-22T23:36:10;13.30;;;10.10;;
69026;SDS011;56080;47.594;19.116;2023-06-22T23:46:12;12.90;;;10.20;;
69026;SDS011;56080;47.594;19.116;2023-06-22T23:56:14;14.00;;;9.60;;
